Time;durP1;ratioP1;P1;durP2;ratioP2;P2;SDS_P1;SDS_P2;PMS_P1;PMS_P2;Temp;Humidity;BMP_temperature;BMP_pressure;BME280_temperature;BME280_humidity;BME280_pressure;Samples;Min_cycle;Max_cycle;Signal;HPM_P1;HPM_P2
2023/02/16 00:01:43;;;;;;;18.80;10.13;;;2.90;99.90;;;;;;5028480;28;20543;-80
2023/02/16 00:04:25;;;;;;;22.88;11.30;;;2.90;99.90;;;;;;5035314;28;20049;-81
2023/02/16 00:06:52;;;;;;;18.42;10.35;;;2.90;99.90;;;;;;5045750;28;20053;-82
2023/02/16 00:09:20;;;;;;;18.35;10.23;;;2.90;99.90;;;;;;5048039;28;20451;-81
2023/02/16 00:14:35;;;;;;;21.15;11.40;;;3.00;99.90;;;;;;5036679;28;20125;-82
2023/02/16 00:17:03;;;;;;;17.25;10.82;;;3.00;99.90;;;;;;5029523;28;20044;-81
2023/02/16 00:19:35;;;;;;;18.55;9.60;;;3.10;99.90;;;;;;5034439;28;20046;-80
2023/02/16 00:22:03;;;;;;;18.83;10.38;;;3.10;99.90;;;;;;5051354;28;20049;-79
2023/02/16 00:24:30;;;;;;;20.63;11.52;;;3.10;99.90;;;;;;5053467;28;20397;-81
2023/02/16 00:26:58;;;;;;;19.15;10.18;;;3.10;99.90;;;;;;5039704;28;20056;-81
2023/02/16 00:29:33;;;;;;;17.77;9.43;;;3.10;99.90;;;;;;5044679;28;20061;-82
2023/02/16 00:32:02;;;;;;;18.95;10.85;;;3.10;99.90;;;;;;5055286;28;20045;-81
2023/02/16 00:34:35;;;;;;;20.73;11.55;;;3.10;99.90;;;;;;5060581;28;20080;-81
2023/02/16 00:37:07;;;;;;;21.02;11.68;;;3.10;99.90;;;;;;5056391;28;20052;-80
2023/02/16 00:39:35;;;;;;;20.83;11.77;;;3.10;99.90;;;;;;5039016;28;20037;-81
2023/02/16 00:42:04;;;;;;;19.02;10.98;;;3.10;99.90;;;;;;5019856;28;20050;-80
2023/02/16 00:44:40;;;;;;;21.20;11.48;;;3.20;99.90;;;;;;5042607;28;20049;-81
2023/02/16 00:47:18;;;;;;;22.15;11.68;;;3.20;99.90;;;;;;5036556;28;20046;-81
2023/02/16 00:49:50;;;;;;;19.52;11.48;;;3.20;99.90;;;;;;5041704;28;20054;-81
2023/02/16 00:52:33;;;;;;;23.73;12.25;;;3.20;99.90;;;;;;5048882;28;20051;-81
2023/02/16 00:55:07;;;;;;;23.60;11.88;;;3.20;99.90;;;;;;5023774;28;20085;-81
2023/02/16 00:57:38;;;;;;;22.10;11.90;;;3.20;99.90;;;;;;5040710;28;20042;-81
2023/02/16 01:00:28;;;;;;;23.83;12.00;;;3.20;99.90;;;;;;5025955;28;20511;-80
2023/02/16 01:02:58;;;;;;;19.75;11.32;;;3.20;99.90;;;;;;5038688;28;20045;-81
2023/02/16 01:05:25;;;;;;;20.98;11.55;;;3.20;99.90;;;;;;5030127;28;20048;-81
2023/02/16 01:13:25;;;;;;;22.27;12.23;;;3.30;99.90;;;;;;5036784;28;20093;-80
2023/02/16 01:15:52;;;;;;;20.25;11.27;;;3.30;99.90;;;;;;5042691;28;20049;-81
2023/02/16 01:18:20;;;;;;;24.13;12.30;;;3.30;99.90;;;;;;5056993;28;20102;-80
2023/02/16 01:20:46;;;;;;;19.88;11.95;;;3.30;99.90;;;;;;5040413;28;20075;-80
2023/02/16 01:23:13;;;;;;;21.58;11.98;;;3.30;99.90;;;;;;5032663;28;20501;-80
2023/02/16 01:25:41;;;;;;;23.85;12.48;;;3.30;99.90;;;;;;5037219;28;20042;-81
2023/02/16 01:28:22;;;;;;;27.00;12.55;;;3.30;99.90;;;;;;5024190;28;20128;-80
2023/02/16 01:30:50;;;;;;;21.42;12.70;;;3.30;99.90;;;;;;5037107;28;20049;-81
2023/02/16 01:33:17;;;;;;;25.88;12.57;;;3.30;99.90;;;;;;5040651;28;20042;-80
2023/02/16 01:35:44;;;;;;;22.60;12.95;;;3.30;99.90;;;;;;5033302;28;20476;-81
2023/02/16 01:38:19;;;;;;;28.85;14.13;;;3.30;99.90;;;;;;5028084;28;20064;-81
2023/02/16 01:40:56;;;;;;;23.23;12.57;;;3.30;99.90;;;;;;5036540;28;20045;-81
2023/02/16 01:43:35;;;;;;;22.45;13.68;;;3.30;99.90;;;;;;5039675;28;20041;-81
2023/02/16 01:46:24;;;;;;;25.97;13.00;;;3.30;99.90;;;;;;5028680;28;20521;-81
2023/02/16 01:48:51;;;;;;;29.25;14.10;;;3.30;99.90;;;;;;5036927;28;20337;-81
2023/02/16 01:51:27;;;;;;;23.88;12.63;;;3.30;99.90;;;;;;5030863;28;20517;-81
2023/02/16 01:54:00;;;;;;;23.42;14.07;;;3.30;99.90;;;;;;5022439;28;20042;-81
2023/02/16 01:56:46;;;;;;;26.25;13.73;;;3.30;99.90;;;;;;5036989;28;20415;-81
2023/02/16 01:59:29;;;;;;;29.55;14.07;;;3.30;99.90;;;;;;5040745;28;20072;-81
2023/02/16 02:02:02;;;;;;;22.95;13.80;;;3.30;99.90;;;;;;5045949;28;20059;-81
2023/02/16 02:07:36;;;;;;;26.85;13.57;;;3.30;99.90;;;;;;5029847;28;20132;-80
2023/02/16 02:10:13;;;;;;;32.33;15.38;;;3.30;99.90;;;;;;5024291;28;20053;-80
2023/02/16 02:12:55;;;;;;;32.50;14.25;;;3.30;99.90;;;;;;5028473;28;20045;-79
2023/02/16 02:15:28;;;;;;;34.55;17.42;;;3.30;99.90;;;;;;5040083;28;20046;-81
2023/02/16 02:17:55;;;;;;;30.98;15.45;;;3.30;99.90;;;;;;5038892;28;20053;-81
2023/02/16 02:23:30;;;;;;;27.08;14.02;;;3.30;99.90;;;;;;5036856;28;20053;-80
2023/02/16 02:23:56;;;;;;;29.85;15.13;;;3.40;99.90;;;;;;5040222;28;20121;-80
2023/02/16 02:26:45;;;;;;;26.95;15.30;;;3.40;99.90;;;;;;5047043;28;20397;-81
2023/02/16 02:29:42;;;;;;;29.10;15.52;;;3.40;99.90;;;;;;5042621;28;20064;-81
2023/02/16 02:32:27;;;;;;;27.45;14.32;;;3.40;99.90;;;;;;5027769;28;20046;-80
2023/02/16 02:35:34;;;;;;;29.95;15.20;;;3.50;99.90;;;;;;5021931;28;20052;-81
2023/02/16 02:38:24;;;;;;;29.98;15.75;;;3.50;99.90;;;;;;5037664;28;20104;-81
2023/02/16 02:42:02;;;;;;;27.88;15.13;;;3.50;99.90;;;;;;5041660;28;20518;-80
2023/02/16 02:44:16;;;;;;;37.38;17.73;;;3.50;99.90;;;;;;5044613;28;20180;-80
2023/02/16 02:46:43;;;;;;;36.22;17.10;;;3.50;99.90;;;;;;5043508;28;20051;-81
2023/02/16 02:49:10;;;;;;;30.50;16.15;;;3.50;99.90;;;;;;5038932;28;20046;-81
2023/02/16 02:51:39;;;;;;;30.90;14.07;;;3.50;99.90;;;;;;5026099;28;20048;-80
2023/02/16 03:03:22;;;;;;;27.05;16.20;;;3.50;99.90;;;;;;5023123;28;20048;-81
2023/02/16 03:05:55;;;;;;;28.52;14.63;;;3.60;99.90;;;;;;5035577;28;20050;-81
2023/02/16 03:08:26;;;;;;;27.73;15.82;;;3.60;99.90;;;;;;5041702;28;20108;-81
2023/02/16 03:14:29;;;;;;;27.48;14.77;;;3.60;99.90;;;;;;5040768;28;20056;-81
2023/02/16 03:30:59;;;;;;;24.85;13.48;;;3.70;99.90;;;;;;5026739;28;20045;-80
2023/02/16 03:33:27;;;;;;;27.13;13.13;;;3.70;99.90;;;;;;5042340;28;20056;-80
2023/02/16 03:35:54;;;;;;;26.60;13.70;;;3.60;99.90;;;;;;5029170;28;20049;-80
2023/02/16 03:38:21;;;;;;;24.92;14.75;;;3.70;99.90;;;;;;5030308;28;20042;-79
2023/02/16 03:40:49;;;;;;;23.88;13.50;;;3.70;99.90;;;;;;5038218;28;20059;-80
2023/02/16 03:43:16;;;;;;;21.75;12.82;;;3.70;99.90;;;;;;5035468;28;20049;-79
2023/02/16 03:45:44;;;;;;;20.92;12.50;;;3.70;99.90;;;;;;5027034;28;20060;-80
2023/02/16 03:48:11;;;;;;;22.70;12.55;;;3.70;99.90;;;;;;5025463;28;20525;-80
2023/02/16 03:50:38;;;;;;;19.67;12.00;;;3.70;99.90;;;;;;5044767;28;20048;-80
2023/02/16 03:53:08;;;;;;;25.90;12.05;;;3.70;99.90;;;;;;5047635;28;20053;-79
2023/02/16 03:55:41;;;;;;;17.95;10.38;;;3.70;99.90;;;;;;5054151;28;20041;-79
2023/02/16 03:58:10;;;;;;;18.92;10.88;;;3.70;99.90;;;;;;5020409;28;20052;-80
2023/02/16 04:00:38;;;;;;;24.70;11.38;;;3.70;99.90;;;;;;5029607;28;20053;-80
2023/02/16 04:03:05;;;;;;;21.58;10.60;;;3.70;99.90;;;;;;5024782;28;20050;-80
2023/02/16 04:05:32;;;;;;;18.02;9.98;;;3.70;99.90;;;;;;5029398;28;20042;-79
2023/02/16 04:07:59;;;;;;;12.88;7.45;;;3.70;99.90;;;;;;5039531;28;20049;-79
2023/02/16 04:10:26;;;;;;;13.55;8.10;;;3.70;99.90;;;;;;5041794;28;20054;-79
2023/02/16 04:12:53;;;;;;;14.35;7.97;;;3.80;99.90;;;;;;5027275;28;20045;-80
2023/02/16 04:15:23;;;;;;;16.90;7.40;;;3.90;99.90;;;;;;5038791;28;20045;-80
2023/02/16 04:17:50;;;;;;;;;;;4.00;99.90;;;;;;5043844;28;20075;-80
2023/02/16 04:20:19;;;;;;;12.55;6.82;;;4.20;99.90;;;;;;5028660;28;19928;-80
2023/02/16 04:22:47;;;;;;;17.10;7.22;;;4.20;99.90;;;;;;5038681;28;20045;-79
2023/02/16 04:25:14;;;;;;;12.65;6.90;;;4.40;99.90;;;;;;5034652;28;20052;-79
2023/02/16 04:27:42;;;;;;;15.27;7.50;;;4.40;99.90;;;;;;5020941;28;20045;-80
2023/02/16 04:30:12;;;;;;;14.07;7.45;;;4.50;99.90;;;;;;5037904;28;20053;-80
2023/02/16 04:32:38;;;;;;;12.45;6.68;;;4.60;99.90;;;;;;5038653;28;20049;-80
2023/02/16 04:35:06;;;;;;;11.15;6.07;;;4.60;99.90;;;;;;5041965;28;20045;-80
2023/02/16 04:37:33;;;;;;;13.63;7.03;;;4.70;99.90;;;;;;5043754;28;20049;-79
2023/02/16 04:39:59;;;;;;;12.98;6.60;;;4.70;99.90;;;;;;5035966;28;20068;-80
2023/02/16 04:42:26;;;;;;;13.07;6.50;;;4.80;99.90;;;;;;5034738;28;20128;-80
2023/02/16 04:44:53;;;;;;;15.32;7.75;;;4.80;99.90;;;;;;5026565;28;20060;-80
2023/02/16 04:47:20;;;;;;;16.63;6.65;;;5.00;99.90;;;;;;5035441;28;20052;-80
2023/02/16 04:49:47;;;;;;;11.32;6.70;;;5.00;99.90;;;;;;5041399;28;20055;-80
2023/02/16 04:52:15;;;;;;;12.43;6.90;;;5.10;99.90;;;;;;5040800;28;20048;-80
2023/02/16 04:54:42;;;;;;;14.15;6.95;;;5.20;99.90;;;;;;5020562;28;20064;-80
2023/02/16 04:57:09;;;;;;;12.95;6.80;;;5.20;99.90;;;;;;5028701;28;20049;-79
2023/02/16 04:59:36;;;;;;;13.20;6.60;;;5.30;99.90;;;;;;5040137;28;20125;-79
2023/02/16 05:02:03;;;;;;;13.27;6.57;;;5.40;99.90;;;;;;5044782;28;20051;-79
2023/02/16 05:04:30;;;;;;;12.38;5.97;;;5.40;99.90;;;;;;5036741;28;20048;-80
2023/02/16 05:06:57;;;;;;;12.85;7.25;;;5.50;99.90;;;;;;5026595;28;20478;-80
2023/02/16 05:09:24;;;;;;;13.10;6.47;;;5.50;99.90;;;;;;5023737;28;20061;-80
2023/02/16 05:14:43;;;;;;;12.82;7.03;;;5.50;99.90;;;;;;5031580;28;20136;-80
2023/02/16 05:17:22;;;;;;;13.25;7.82;;;5.50;99.90;;;;;;5036991;28;20042;-80
2023/02/16 05:19:51;;;;;;;11.05;6.60;;;5.50;99.90;;;;;;5044246;28;20040;-79
2023/02/16 05:22:19;;;;;;;11.38;6.72;;;5.50;99.90;;;;;;5025635;28;20052;-79
2023/02/16 05:24:46;;;;;;;16.30;7.80;;;5.50;99.90;;;;;;5036689;28;20057;-80
2023/02/16 05:27:16;;;;;;;12.02;6.28;;;5.50;99.90;;;;;;5024518;28;20137;-80
2023/02/16 05:29:43;;;;;;;12.77;6.95;;;5.50;99.90;;;;;;5037675;28;20132;-80
2023/02/16 05:32:10;;;;;;;14.45;7.53;;;5.50;99.90;;;;;;5031786;28;20045;-80
2023/02/16 05:34:36;;;;;;;12.27;6.43;;;5.40;99.90;;;;;;5035637;28;20089;-80
2023/02/16 05:37:04;;;;;;;12.23;6.50;;;5.40;99.90;;;;;;5019087;28;20052;-80
2023/02/16 05:39:30;;;;;;;15.45;7.70;;;5.40;99.90;;;;;;5020121;28;20124;-80
2023/02/16 05:41:57;;;;;;;12.52;7.53;;;5.30;99.90;;;;;;5036872;28;20049;-79
2023/02/16 05:44:24;;;;;;;14.55;8.23;;;5.30;99.90;;;;;;5041744;28;20068;-80
2023/02/16 05:46:50;;;;;;;11.60;6.88;;;5.30;99.90;;;;;;5049344;28;20053;-80
2023/02/16 05:49:17;;;;;;;14.40;7.18;;;5.20;99.90;;;;;;5023779;28;20417;-80
2023/02/16 05:51:44;;;;;;;14.48;8.35;;;5.20;99.90;;;;;;5018794;28;20050;-80
2023/02/16 05:54:16;;;;;;;14.32;8.15;;;5.20;99.90;;;;;;5021755;28;20428;-80
2023/02/16 05:56:48;;;;;;;14.30;7.30;;;5.20;99.90;;;;;;5030380;28;20080;-80
2023/02/16 05:59:16;;;;;;;15.80;7.38;;;5.20;99.90;;;;;;5035798;28;20124;-80
2023/02/16 06:01:45;;;;;;;14.27;7.78;;;5.20;99.90;;;;;;5043359;28;20037;-80
2023/02/16 06:04:16;;;;;;;15.23;7.05;;;5.20;99.90;;;;;;5025207;28;20116;-80
2023/02/16 06:06:43;;;;;;;15.40;7.75;;;5.20;99.90;;;;;;5034856;28;20045;-80
2023/02/16 06:09:09;;;;;;;15.05;7.45;;;5.20;99.90;;;;;;5040964;28;20041;-81
2023/02/16 06:11:36;;;;;;;15.93;8.40;;;5.10;99.90;;;;;;5032856;28;20053;-80
2023/02/16 06:14:10;;;;;;;12.60;7.03;;;5.20;99.90;;;;;;5026207;28;20048;-80
2023/02/16 06:16:40;;;;;;;15.40;7.45;;;5.20;99.90;;;;;;5034157;28;20042;-80
2023/02/16 06:19:08;;;;;;;12.23;7.28;;;5.10;99.90;;;;;;5017539;28;20050;-80
2023/02/16 06:21:36;;;;;;;14.25;7.30;;;5.20;99.90;;;;;;5025808;28;20042;-80
2023/02/16 06:24:03;;;;;;;12.70;7.50;;;5.20;99.90;;;;;;5027767;28;20124;-81
2023/02/16 06:26:30;;;;;;;13.90;7.43;;;5.20;99.90;;;;;;5040373;28;20049;-80
2023/02/16 06:28:57;;;;;;;13.05;8.20;;;5.20;99.90;;;;;;5046983;28;20049;-79
2023/02/16 06:31:24;;;;;;;13.55;7.80;;;5.10;99.90;;;;;;5048479;28;20050;-79
2023/02/16 06:33:51;;;;;;;30.65;16.65;;;5.10;99.90;;;;;;5025627;28;20057;-80
2023/02/16 06:36:19;;;;;;;16.42;10.07;;;5.10;99.90;;;;;;5037552;28;20111;-79
2023/02/16 06:38:46;;;;;;;17.55;9.57;;;5.10;99.90;;;;;;5030703;28;20069;-80
2023/02/16 06:41:29;;;;;;;20.20;10.40;;;5.00;99.90;;;;;;5036501;28;20046;-80
2023/02/16 06:44:00;;;;;;;17.02;9.38;;;5.10;99.90;;;;;;5047160;28;20492;-79
2023/02/16 06:46:27;;;;;;;17.63;8.65;;;5.00;99.90;;;;;;5043160;28;20057;-80
2023/02/16 06:48:54;;;;;;;12.13;7.85;;;5.00;99.90;;;;;;5031794;28;20053;-80
2023/02/16 06:51:21;;;;;;;14.38;8.00;;;5.00;99.90;;;;;;5047191;28;20109;-79
2023/02/16 06:53:48;;;;;;;16.85;9.02;;;5.00;99.90;;;;;;5046294;28;20049;-80
2023/02/16 06:56:15;;;;;;;23.23;13.15;;;5.00;99.90;;;;;;5032082;28;20052;-81
2023/02/16 06:58:42;;;;;;;19.92;11.52;;;4.90;99.90;;;;;;5034973;28;20448;-81
2023/02/16 07:01:08;;;;;;;16.60;10.23;;;4.90;99.90;;;;;;5020932;28;20045;-80
2023/02/16 07:03:35;;;;;;;18.52;10.25;;;4.90;99.90;;;;;;5023346;28;20041;-80
2023/02/16 07:06:02;;;;;;;15.93;7.90;;;4.90;99.90;;;;;;5043745;28;20049;-80
2023/02/16 07:08:29;;;;;;;16.45;8.82;;;4.90;99.90;;;;;;5039961;28;20048;-80
2023/02/16 07:10:55;;;;;;;21.23;11.85;;;5.00;99.90;;;;;;5039490;28;20052;-80
2023/02/16 07:13:22;;;;;;;15.82;9.90;;;4.90;99.90;;;;;;5048238;28;20109;-80
2023/02/16 07:15:49;;;;;;;18.38;10.52;;;4.90;99.90;;;;;;5030360;28;20045;-80
2023/02/16 07:18:16;;;;;;;17.23;10.88;;;4.90;99.90;;;;;;5033099;28;20053;-80
2023/02/16 07:20:42;;;;;;;11.90;7.70;;;4.90;99.90;;;;;;5037758;28;20109;-80
2023/02/16 07:23:09;;;;;;;12.25;7.68;;;4.90;99.90;;;;;;5031530;28;20071;-80
2023/02/16 07:25:36;;;;;;;15.40;8.82;;;4.90;99.90;;;;;;5044206;28;20050;-80
2023/02/16 07:28:03;;;;;;;17.17;9.73;;;4.90;99.90;;;;;;5035339;28;20508;-80
2023/02/16 07:30:30;;;;;;;17.73;11.05;;;5.00;99.90;;;;;;5021180;28;20566;-81
2023/02/16 07:32:57;;;;;;;14.60;9.25;;;5.00;99.90;;;;;;5033410;28;20075;-80
2023/02/16 07:35:23;;;;;;;16.73;8.18;;;5.00;99.90;;;;;;5043479;28;20433;-80
2023/02/16 07:37:50;;;;;;;17.17;7.63;;;5.00;99.90;;;;;;5050461;28;20045;-80
2023/02/16 07:40:17;;;;;;;12.10;7.20;;;5.00;99.90;;;;;;5041511;28;20045;-80
2023/02/16 07:42:43;;;;;;;15.15;6.75;;;5.10;99.90;;;;;;5023558;28;20057;-79
2023/02/16 07:45:10;;;;;;;10.63;6.07;;;5.20;99.90;;;;;;5024572;28;20493;-79
2023/02/16 07:47:37;;;;;;;8.88;5.13;;;5.30;99.90;;;;;;5024760;28;20080;-80
2023/02/16 07:50:04;;;;;;;13.40;7.60;;;5.40;99.90;;;;;;5030826;28;20081;-80
2023/02/16 07:52:33;;;;;;;17.92;8.93;;;5.40;99.90;;;;;;5041493;28;20056;-79
2023/02/16 07:54:59;;;;;;;11.13;6.72;;;5.50;99.90;;;;;;5044249;28;20052;-80
2023/02/16 07:57:27;;;;;;;9.85;5.60;;;5.60;99.90;;;;;;5034916;28;20045;-80
2023/02/16 07:59:55;;;;;;;12.82;6.28;;;5.60;99.90;;;;;;5036677;28;20052;-80
2023/02/16 08:02:22;;;;;;;9.50;5.78;;;5.70;99.90;;;;;;5031635;28;20049;-80
2023/02/16 08:04:51;;;;;;;10.23;5.75;;;5.70;99.90;;;;;;5026490;28;20045;-79
2023/02/16 08:07:19;;;;;;;12.63;6.03;;;5.80;99.90;;;;;;5031829;28;20052;-79
2023/02/16 08:09:46;;;;;;;7.85;5.03;;;5.90;99.90;;;;;;5034274;28;20523;-80
2023/02/16 08:12:14;;;;;;;9.55;5.35;;;6.00;99.90;;;;;;5018023;28;20414;-80
2023/02/16 08:14:42;;;;;;;9.20;5.40;;;6.20;99.90;;;;;;5019748;28;20053;-79
2023/02/16 08:17:09;;;;;;;10.20;6.10;;;6.20;99.90;;;;;;5035103;28;20056;-80
2023/02/16 08:19:36;;;;;;;9.80;5.72;;;6.30;99.90;;;;;;5050752;28;20600;-80
2023/02/16 08:22:04;;;;;;;11.80;6.20;;;6.40;99.90;;;;;;5049274;28;20060;-79
2023/02/16 08:24:32;;;;;;;11.77;5.50;;;6.40;99.90;;;;;;5037311;28;20042;-80
2023/02/16 08:27:02;;;;;;;10.88;5.85;;;6.40;99.90;;;;;;5030100;28;20045;-79
2023/02/16 08:29:29;;;;;;;10.10;5.40;;;6.50;99.90;;;;;;5020731;28;20184;-79
2023/02/16 08:31:56;;;;;;;10.85;5.50;;;6.50;99.90;;;;;;5046654;28;20061;-81
2023/02/16 08:34:23;;;;;;;10.68;5.80;;;6.60;99.90;;;;;;5032086;28;20049;-81
2023/02/16 08:36:55;;;;;;;8.38;5.00;;;6.60;99.90;;;;;;5053279;28;20140;-80
2023/02/16 08:39:28;;;;;;;9.02;5.20;;;6.70;99.90;;;;;;5030405;28;20493;-80
2023/02/16 08:41:55;;;;;;;9.85;5.45;;;6.80;99.90;;;;;;5026342;28;20136;-80
2023/02/16 08:44:24;;;;;;;9.07;5.32;;;6.80;99.90;;;;;;5041268;28;20048;-80
2023/02/16 08:46:53;;;;;;;12.05;5.55;;;6.90;99.90;;;;;;5029261;28;20053;-80
2023/02/16 08:49:21;;;;;;;10.93;5.75;;;6.90;99.90;;;;;;5027715;28;20050;-80
2023/02/16 08:51:51;;;;;;;12.20;5.95;;;7.00;99.90;;;;;;5049015;28;20063;-80
2023/02/16 08:54:26;;;;;;;9.25;6.30;;;7.10;99.90;;;;;;5031372;28;20054;-80
2023/02/16 08:56:54;;;;;;;12.50;5.63;;;7.20;99.90;;;;;;5022789;28;20045;-79
2023/02/16 08:59:23;;;;;;;10.15;5.35;;;7.20;99.90;;;;;;5023907;28;20037;-79
2023/02/16 09:01:52;;;;;;;11.05;5.85;;;7.40;99.90;;;;;;5041657;28;20045;-79
2023/02/16 09:04:19;;;;;;;12.20;5.50;;;7.40;99.90;;;;;;5035819;28;20037;-79
2023/02/16 09:06:49;;;;;;;12.10;5.50;;;7.50;99.90;;;;;;5036821;28;20053;-78
2023/02/16 09:09:16;;;;;;;10.77;5.28;;;7.60;99.90;;;;;;5029946;28;20053;-80
2023/02/16 09:11:43;;;;;;;8.02;5.30;;;7.60;99.90;;;;;;5025903;28;20053;-78
2023/02/16 09:14:10;;;;;;;10.02;5.38;;;7.60;99.90;;;;;;5023054;28;20428;-79
2023/02/16 09:16:44;;;;;;;11.73;6.00;;;7.70;99.90;;;;;;5032438;28;20415;-79
2023/02/16 09:19:13;;;;;;;9.43;5.45;;;7.80;99.90;;;;;;5039665;28;20079;-79
2023/02/16 09:21:41;;;;;;;8.55;5.35;;;7.80;99.90;;;;;;5032777;28;20042;-79
2023/02/16 09:24:08;;;;;;;8.13;5.43;;;7.90;99.90;;;;;;5033794;28;20085;-77
2023/02/16 09:26:37;;;;;;;10.15;5.32;;;8.00;99.90;;;;;;5035206;28;20053;-79
2023/02/16 09:29:05;;;;;;;10.50;5.88;;;8.00;99.90;;;;;;5044042;28;20065;-79
2023/02/16 09:31:34;;;;;;;12.95;5.38;;;8.10;99.90;;;;;;5040523;28;20072;-79
2023/02/16 09:34:07;;;;;;;10.82;5.82;;;8.10;99.90;;;;;;5035330;28;20431;-79
2023/02/16 09:36:36;;;;;;;11.50;4.43;;;8.10;99.90;;;;;;5029793;28;20042;-79
2023/02/16 09:39:03;;;;;;;9.48;5.13;;;8.20;99.90;;;;;;5020925;28;20132;-79
2023/02/16 09:41:45;;;;;;;9.85;4.85;;;8.30;99.90;;;;;;5025005;28;20138;-81
2023/02/16 09:44:17;;;;;;;9.32;4.75;;;8.30;99.90;;;;;;5033734;28;20042;-79
2023/02/16 09:46:45;;;;;;;9.77;5.05;;;8.40;99.90;;;;;;5043182;28;20060;-79
2023/02/16 09:49:42;;;;;;;7.97;5.20;;;8.40;99.90;;;;;;5030360;28;20060;-79
2023/02/16 09:52:18;;;;;;;9.07;5.13;;;8.40;99.90;;;;;;5027559;28;20049;-79
2023/02/16 09:54:52;;;;;;;10.68;4.82;;;8.50;99.90;;;;;;5025365;28;20059;-80
2023/02/16 09:57:40;;;;;;;11.02;5.22;;;8.50;99.90;;;;;;5028488;28;20050;-80
2023/02/16 10:00:23;;;;;;;9.27;4.88;;;8.60;99.90;;;;;;5026295;28;20052;-79
2023/02/16 10:03:05;;;;;;;12.73;5.35;;;8.60;99.90;;;;;;5039744;28;20041;-79
2023/02/16 10:05:57;;;;;;;7.70;4.72;;;8.70;99.90;;;;;;5026333;28;20484;-80
2023/02/16 10:08:30;;;;;;;10.90;4.82;;;8.70;99.90;;;;;;5020947;28;20067;-80
2023/02/16 10:11:00;;;;;;;9.75;5.32;;;8.70;99.90;;;;;;5039923;28;20064;-80
2023/02/16 10:13:35;;;;;;;;;;;8.80;99.90;;;;;;5045353;28;20049;-80
2023/02/16 10:16:05;;;;;;;7.13;4.32;;;8.80;99.90;;;;;;5049540;28;19920;-80
2023/02/16 10:18:39;;;;;;;8.23;4.53;;;8.90;99.90;;;;;;5018841;28;20042;-79
2023/02/16 10:21:14;;;;;;;9.32;4.70;;;8.90;99.90;;;;;;5023371;28;20052;-79
2023/02/16 10:23:57;;;;;;;8.80;5.10;;;8.90;99.90;;;;;;5031110;28;20053;-80
2023/02/16 10:26:32;;;;;;;11.18;5.63;;;9.00;99.90;;;;;;5041429;28;20136;-78
2023/02/16 10:29:05;;;;;;;7.25;4.75;;;9.00;99.90;;;;;;5036034;28;20468;-80
2023/02/16 10:31:38;;;;;;;8.75;5.32;;;9.10;99.90;;;;;;5026346;28;20421;-80
2023/02/16 10:34:37;;;;;;;18.15;5.50;;;9.10;99.90;;;;;;5019435;28;20654;-79
2023/02/16 10:37:27;;;;;;;8.70;4.82;;;9.20;99.90;;;;;;5040612;28;20562;-80
2023/02/16 10:40:26;;;;;;;12.20;5.95;;;9.20;99.90;;;;;;5035086;28;20045;-77
2023/02/16 10:43:28;;;;;;;11.68;5.38;;;9.30;99.90;;;;;;5034841;28;20037;-79
2023/02/16 10:46:00;;;;;;;8.25;5.28;;;9.30;99.90;;;;;;5024623;28;20531;-80
2023/02/16 10:48:27;;;;;;;9.75;4.45;;;9.40;99.90;;;;;;5026821;28;20098;-79
2023/02/16 10:51:04;;;;;;;10.57;5.38;;;9.40;99.90;;;;;;5025972;28;20064;-79
2023/02/16 10:53:59;;;;;;;11.90;5.90;;;9.50;99.90;;;;;;5038158;28;20057;-79
2023/02/16 10:56:38;;;;;;;8.65;4.57;;;9.60;99.90;;;;;;5042979;28;20053;-79
2023/02/16 10:59:13;;;;;;;9.95;5.50;;;9.60;99.90;;;;;;5045820;28;20050;-79
2023/02/16 11:01:44;;;;;;;10.50;5.68;;;9.60;99.90;;;;;;5022833;28;20412;-80
2023/02/16 11:04:38;;;;;;;11.45;5.75;;;9.70;99.90;;;;;;5022684;28;20045;-79
2023/02/16 11:07:08;;;;;;;11.27;5.50;;;9.70;99.90;;;;;;5044616;28;20459;-80
2023/02/16 11:09:36;;;;;;;8.43;5.72;;;9.70;99.90;;;;;;5031170;28;20057;-79
2023/02/16 11:12:15;;;;;;;8.75;5.50;;;9.70;99.90;;;;;;5044630;28;20053;-79
2023/02/16 11:14:49;;;;;;;8.15;5.22;;;9.80;99.90;;;;;;5024296;28;20056;-79
2023/02/16 11:17:19;;;;;;;9.65;5.25;;;9.80;99.90;;;;;;5026879;28;20513;-80
2023/02/16 11:20:20;;;;;;;11.35;5.72;;;9.90;99.90;;;;;;5034276;28;20137;-79
2023/02/16 11:22:47;;;;;;;8.75;4.95;;;9.90;99.90;;;;;;5026663;28;20050;-78
2023/02/16 11:25:17;;;;;;;8.85;5.35;;;10.00;99.90;;;;;;5033797;28;20044;-80
2023/02/16 11:27:58;;;;;;;;;;;10.10;99.90;;;;;;5031987;28;20050;-80
2023/02/16 11:30:37;;;;;;;11.93;5.22;;;10.00;99.90;;;;;;5019740;28;19927;-80
2023/02/16 11:33:25;;;;;;;8.50;4.90;;;10.10;99.90;;;;;;5024103;28;20054;-80
2023/02/16 11:35:53;;;;;;;10.65;5.50;;;10.10;99.90;;;;;;5036705;28;20060;-79
2023/02/16 11:38:29;;;;;;;10.73;5.88;;;10.10;99.90;;;;;;5041493;28;20053;-79
2023/02/16 11:40:58;;;;;;;12.02;5.88;;;10.20;99.90;;;;;;5042024;28;20667;-80
2023/02/16 11:43:33;;;;;;;9.65;5.35;;;10.20;99.90;;;;;;5027726;28;20052;-80
2023/02/16 11:46:07;;;;;;;8.95;4.43;;;10.30;99.90;;;;;;5025435;28;20401;-80
2023/02/16 11:48:35;;;;;;;9.13;5.18;;;10.30;99.90;;;;;;5020837;28;20104;-79
2023/02/16 11:51:05;;;;;;;8.68;5.20;;;10.40;99.90;;;;;;5027489;28;20042;-79
2023/02/16 11:53:35;;;;;;;10.25;5.40;;;10.40;99.90;;;;;;5034239;28;20048;-79
2023/02/16 11:56:21;;;;;;;11.00;6.10;;;10.40;99.90;;;;;;5029793;28;20045;-79
2023/02/16 11:59:07;;;;;;;10.20;4.88;;;10.50;99.90;;;;;;5042314;28;20064;-81
2023/02/16 12:01:58;;;;;;;9.18;4.95;;;10.50;99.90;;;;;;5039072;28;20052;-79
2023/02/16 12:04:40;;;;;;;7.28;4.40;;;10.70;99.90;;;;;;5042396;28;20484;-78
2023/02/16 12:07:28;;;;;;;11.15;5.88;;;10.90;99.90;;;;;;5044280;28;20055;-80
2023/02/16 12:09:54;;;;;;;9.65;5.18;;;11.00;99.90;;;;;;5037397;28;20046;-78
2023/02/16 12:12:33;;;;;;;12.35;5.40;;;11.00;99.90;;;;;;5031338;28;20049;-80
2023/02/16 12:15:22;;;;;;;9.52;4.65;;;11.10;99.90;;;;;;5036336;28;20053;-80
2023/02/16 12:18:02;;;;;;;8.75;5.03;;;11.20;99.90;;;;;;5034379;28;20045;-80
2023/02/16 12:20:46;;;;;;;9.85;5.38;;;11.30;99.90;;;;;;5034117;28;20053;-81
2023/02/16 12:23:37;;;;;;;11.77;5.75;;;11.40;99.90;;;;;;5045835;28;20049;-80
2023/02/16 12:26:25;;;;;;;10.82;5.38;;;11.50;99.90;;;;;;5025921;28;20041;-82
2023/02/16 12:29:12;;;;;;;8.82;5.88;;;11.60;99.90;;;;;;5037958;28;20144;-79
2023/02/16 12:31:46;;;;;;;8.23;5.38;;;11.90;99.90;;;;;;5030551;28;20511;-79
2023/02/16 12:34:27;;;;;;;8.80;4.50;;;12.00;99.90;;;;;;5029226;28;20133;-79
2023/02/16 12:37:07;;;;;;;6.20;4.25;;;12.10;99.90;;;;;;5036514;28;20042;-79
2023/02/16 12:39:57;;;;;;;8.73;5.07;;;12.20;99.90;;;;;;5022663;28;20044;-80
2023/02/16 12:42:41;;;;;;;8.98;4.75;;;12.30;99.90;;;;;;5026743;28;20053;-79
2023/02/16 12:45:21;;;;;;;10.55;4.55;;;12.30;99.90;;;;;;5032485;28;20511;-80
2023/02/16 12:47:58;;;;;;;8.90;4.50;;;12.30;99.90;;;;;;5041175;28;20053;-80
2023/02/16 12:50:31;;;;;;;12.70;5.32;;;12.40;99.90;;;;;;5036142;28;20048;-80
2023/02/16 12:53:09;;;;;;;9.02;4.95;;;12.40;99.90;;;;;;5030548;28;20132;-80
2023/02/16 12:55:43;;;;;;;8.73;4.82;;;12.30;99.90;;;;;;5028640;28;20132;-80
2023/02/16 12:58:13;;;;;;;7.72;4.70;;;12.30;99.90;;;;;;5026765;28;20045;-80
2023/02/16 13:01:02;;;;;;;11.68;4.78;;;12.30;99.90;;;;;;5030055;28;20051;-79
2023/02/16 13:03:38;;;;;;;7.63;5.13;;;12.20;99.90;;;;;;5034638;28;20076;-79
2023/02/16 13:06:32;;;;;;;9.60;4.85;;;12.20;99.90;;;;;;5033126;28;20042;-80
2023/02/16 13:09:32;;;;;;;7.30;4.78;;;12.20;99.90;;;;;;5023910;28;20125;-80
2023/02/16 13:12:14;;;;;;;8.27;5.50;;;12.20;99.90;;;;;;5051031;28;20423;-80
2023/02/16 13:14:44;;;;;;;8.18;5.30;;;12.20;99.90;;;;;;5036542;28;20047;-79
2023/02/16 13:17:35;;;;;;;7.38;4.80;;;12.20;99.90;;;;;;5041401;28;20041;-80
2023/02/16 13:20:02;;;;;;;14.40;6.38;;;12.20;99.90;;;;;;5035973;28;20493;-79
2023/02/16 13:22:56;;;;;;;11.75;6.10;;;12.30;99.90;;;;;;5030141;28;20041;-79
2023/02/16 13:25:48;;;;;;;10.43;5.35;;;12.20;99.90;;;;;;5044715;28;20077;-79
2023/02/16 13:28:48;;;;;;;10.75;5.57;;;12.20;99.90;;;;;;5034931;28;20103;-80
2023/02/16 13:31:31;;;;;;;;;;;12.30;99.90;;;;;;5035591;28;20562;-80
2023/02/16 13:34:04;;;;;;;9.25;5.28;;;12.30;99.90;;;;;;5033035;28;19932;-79
2023/02/16 13:36:59;;;;;;;11.13;5.97;;;12.20;99.90;;;;;;5036731;28;20049;-79
2023/02/16 13:40:09;;;;;;;8.52;4.72;;;12.30;99.90;;;;;;5041099;28;20091;-79
2023/02/16 13:43:05;;;;;;;9.32;4.20;;;12.40;99.90;;;;;;5033318;28;20042;-80
2023/02/16 13:45:37;;;;;;;7.18;4.03;;;12.40;99.90;;;;;;5031861;28;20400;-80
2023/02/16 13:48:20;;;;;;;8.38;3.90;;;12.50;99.90;;;;;;5043624;28;20052;-80
2023/02/16 13:50:55;;;;;;;7.45;3.90;;;12.60;99.90;;;;;;5026870;28;20147;-80
2023/02/16 13:53:23;;;;;;;11.18;5.25;;;12.70;99.90;;;;;;5038712;28;20050;-80
2023/02/16 13:56:16;;;;;;;7.38;4.15;;;12.70;99.90;;;;;;5044901;28;20492;-80
2023/02/16 13:58:43;;;;;;;8.85;4.65;;;12.70;99.90;;;;;;5049521;28;20045;-80